createdAt,value
2018-07-08T00:40:42.788Z,13.20
2018-07-08T00:43:12.670Z,13.20
2018-07-08T00:45:42.418Z,13.20
2018-07-08T00:48:12.241Z,13.30
2018-07-08T00:50:41.642Z,13.40
2018-07-08T00:53:12.611Z,13.50
2018-07-08T00:55:42.311Z,13.50
2018-07-08T00:58:11.716Z,13.50
2018-07-08T01:17:57.627Z,13.70
2018-07-08T01:20:27.178Z,13.70
2018-07-08T01:22:56.557Z,13.70
2018-07-08T01:25:37.938Z,13.80
2018-07-08T01:28:07.234Z,13.80
2018-07-08T01:30:37.132Z,13.70
2018-07-08T01:33:07.178Z,13.60
2018-07-08T01:35:36.886Z,13.60
2018-07-08T01:43:53.927Z,13.10
2018-07-08T01:46:26.714Z,13.00
2018-07-08T01:49:00.092Z,12.90
2018-07-08T01:51:31.136Z,12.80
2018-07-08T01:54:01.310Z,12.70
2018-07-08T01:56:31.509Z,12.70
2018-07-08T01:59:01.416Z,12.70
2018-07-08T02:01:31.230Z,12.70
2018-07-08T02:33:14.964Z,13.20
2018-07-08T02:35:47.185Z,13.20
2018-07-08T02:38:22.572Z,13.20
2018-07-08T02:40:56.907Z,13.30
2018-07-08T02:43:29.512Z,13.30
2018-07-08T02:46:04.223Z,13.40
2018-07-08T02:48:36.703Z,13.50
2018-07-08T02:51:22.727Z,13.50
2018-07-08T02:53:53.133Z,13.60
2018-07-08T02:56:23.227Z,13.70
2018-07-08T02:58:54.638Z,13.70
2018-07-08T03:01:26.909Z,13.80
2018-07-08T03:03:58.727Z,13.80
2018-07-08T03:06:28.453Z,13.80
2018-07-08T03:08:58.264Z,13.80
2018-07-08T03:28:48.268Z,14.60
2018-07-08T03:31:18.079Z,14.80
2018-07-08T03:33:46.954Z,14.90
2018-07-08T03:36:16.848Z,15.00
2018-07-08T03:38:47.047Z,15.10
2018-07-08T03:41:17.026Z,15.30
2018-07-08T03:43:47.935Z,15.40
2018-07-08T03:46:18.219Z,15.50
2018-07-08T03:49:06.816Z,15.70
2018-07-08T03:51:37.027Z,15.80
2018-07-08T03:54:16.101Z,15.70
2018-07-08T03:56:45.947Z,15.70
2018-07-08T03:59:15.965Z,15.70
2018-07-08T04:01:46.759Z,15.80
2018-07-08T04:04:19.883Z,15.70
2018-07-08T04:06:52.944Z,15.80
2018-07-08T04:46:51.246Z,16.20
2018-07-08T04:49:21.023Z,16.30
2018-07-08T04:51:51.255Z,16.40
2018-07-08T04:54:21.762Z,16.60
2018-07-08T04:56:52.180Z,16.60
2018-07-08T04:59:23.721Z,16.80
2018-07-08T05:02:01.435Z,16.80
2018-07-08T05:04:33.333Z,16.90
2018-07-08T05:07:04.976Z,16.90
2018-07-08T05:09:35.447Z,17.00
2018-07-08T05:12:06.242Z,17.10
2018-07-08T05:14:36.100Z,17.30
2018-07-08T05:17:10.224Z,17.40
2018-07-08T05:19:39.827Z,17.40
2018-07-08T05:39:28.794Z,17.40
2018-07-08T05:41:58.722Z,17.40
2018-07-08T05:44:28.679Z,17.40
2018-07-08T05:46:58.851Z,17.30
2018-07-08T05:49:29.364Z,17.20
2018-07-08T05:51:58.988Z,17.20
2018-07-08T05:54:28.625Z,17.20
2018-07-08T06:02:32.859Z,17.20
2018-07-08T06:05:06.749Z,17.20
2018-07-08T06:07:37.040Z,17.30
2018-07-08T06:10:06.715Z,17.30
2018-07-08T06:12:46.795Z,17.40
2018-07-08T06:15:16.856Z,17.40
2018-07-08T06:17:46.767Z,17.40
2018-07-08T06:20:18.653Z,17.50
2018-07-08T06:22:47.950Z,17.50
2018-07-08T06:25:17.762Z,17.60
2018-07-08T06:27:46.942Z,17.50
2018-07-08T06:30:16.846Z,17.60
2018-07-08T06:32:46.575Z,17.60
2018-07-08T06:35:15.591Z,17.70
2018-07-08T06:37:46.909Z,17.70
2018-07-08T06:40:18.092Z,17.70
2018-07-08T06:42:47.592Z,17.70
2018-07-08T06:45:21.775Z,17.70
2018-07-08T06:47:51.368Z,17.80
2018-07-08T06:50:20.770Z,17.80
2018-07-08T06:52:55.502Z,17.90
2018-07-08T06:55:24.690Z,17.90
2018-07-08T06:57:54.135Z,18.00
2018-07-08T07:00:23.991Z,18.00
2018-07-08T07:02:54.465Z,18.00
2018-07-08T07:05:24.125Z,18.00
2018-07-08T07:07:53.323Z,18.00
2018-07-08T07:10:22.911Z,18.10
2018-07-08T07:12:54.575Z,18.10
2018-07-08T07:15:23.486Z,18.20
2018-07-08T07:17:52.630Z,18.30
2018-07-08T07:20:22.898Z,18.30
2018-07-08T07:22:52.656Z,18.30
2018-07-08T07:25:22.523Z,18.30
2018-07-08T07:27:52.562Z,18.30
2018-07-08T07:30:22.787Z,18.40
2018-07-08T07:32:52.627Z,18.40
2018-07-08T07:35:22.646Z,18.50
2018-07-08T07:37:56.036Z,18.50
2018-07-08T07:40:26.667Z,18.60
2018-07-08T07:42:57.430Z,18.60
2018-07-08T07:45:26.646Z,18.60
2018-07-08T07:47:56.643Z,18.60
2018-07-08T07:50:25.883Z,18.60
2018-07-08T07:53:03.461Z,18.60
2018-07-08T07:55:33.076Z,18.70
2018-07-08T07:58:02.623Z,18.70
2018-07-08T08:00:32.284Z,18.80
2018-07-08T08:03:01.522Z,19.00
2018-07-08T08:05:30.518Z,19.00
2018-07-08T08:07:59.762Z,19.10
2018-07-08T08:10:29.446Z,19.20
2018-07-08T08:13:00.326Z,19.30
2018-07-08T08:15:29.695Z,19.30
2018-07-08T08:17:58.743Z,19.30
2018-07-08T08:20:28.371Z,19.20
2018-07-08T08:22:58.290Z,19.20
2018-07-08T08:25:28.690Z,19.30
2018-07-08T08:27:58.174Z,19.50
2018-07-08T08:30:28.113Z,19.50
2018-07-08T08:32:57.690Z,19.40
2018-07-08T08:35:35.675Z,19.50
2018-07-08T08:38:04.498Z,19.60
2018-07-08T08:40:34.698Z,19.60
2018-07-08T08:43:03.579Z,19.60
2018-07-08T08:45:33.230Z,19.60
2018-07-08T08:48:03.353Z,19.60
2018-07-08T08:50:33.694Z,19.60
2018-07-08T08:53:03.307Z,19.60
2018-07-08T08:55:37.569Z,19.60
2018-07-08T08:58:07.714Z,19.60
2018-07-08T09:00:38.363Z,19.60
2018-07-08T09:03:07.652Z,19.70
2018-07-08T09:05:38.953Z,19.90
2018-07-08T09:09:03.062Z,20.10
2018-07-08T09:11:33.522Z,20.10
2018-07-08T09:14:04.810Z,20.10
2018-07-08T09:16:35.867Z,20.10
2018-07-08T09:19:06.499Z,20.10
2018-07-08T09:21:36.592Z,20.20
2018-07-08T09:24:06.858Z,20.10
2018-07-08T09:26:37.811Z,20.20
2018-07-08T09:29:26.391Z,20.30
2018-07-08T09:31:59.167Z,20.40
2018-07-08T09:34:28.390Z,20.40
2018-07-08T09:37:30.711Z,20.50
2018-07-08T09:40:01.590Z,20.50
2018-07-08T09:42:31.931Z,20.40
2018-07-08T09:45:03.090Z,20.50
2018-07-08T09:47:32.961Z,20.70
2018-07-08T09:50:03.101Z,20.80
2018-07-08T09:52:33.071Z,20.90
2018-07-08T09:55:06.425Z,20.80
2018-07-08T09:57:36.654Z,20.80
2018-07-08T10:00:06.614Z,21.00
2018-07-08T10:02:37.946Z,20.90
2018-07-08T10:05:07.906Z,21.00
2018-07-08T10:07:37.740Z,20.90
2018-07-08T10:10:08.220Z,20.90
2018-07-08T10:12:41.065Z,21.00
2018-07-08T10:15:10.663Z,21.10
2018-07-08T10:17:42.032Z,21.20
2018-07-08T10:20:12.273Z,21.40
2018-07-08T10:22:41.308Z,21.50
2018-07-08T10:25:10.801Z,21.40
2018-07-08T10:28:26.552Z,21.50
2018-07-08T10:30:56.240Z,21.60
2018-07-08T10:33:25.415Z,21.60
2018-07-08T10:36:02.703Z,21.60
2018-07-08T10:38:34.838Z,21.70
2018-07-08T10:41:04.806Z,21.80
2018-07-08T10:43:33.838Z,21.90
2018-07-08T10:46:06.466Z,21.90
2018-07-08T10:48:37.322Z,22.00
2018-07-08T10:51:08.921Z,22.00
2018-07-08T10:53:39.403Z,22.00
2018-07-08T10:56:08.586Z,22.00
2018-07-08T10:58:39.543Z,22.00
2018-07-08T11:01:10.407Z,22.10
2018-07-08T11:03:40.887Z,22.10
2018-07-08T11:06:10.699Z,22.10
2018-07-08T11:08:40.191Z,22.10
2018-07-08T11:11:10.455Z,22.10
2018-07-08T11:13:40.762Z,22.20
2018-07-08T11:16:12.493Z,22.20
2018-07-08T11:18:42.614Z,22.20
2018-07-08T11:21:12.890Z,22.20
2018-07-08T11:23:42.514Z,22.30
2018-07-08T11:26:12.418Z,22.40
2018-07-08T11:28:41.623Z,22.40
2018-07-08T11:31:12.707Z,22.40
2018-07-08T11:33:41.982Z,22.60
2018-07-08T11:36:12.630Z,22.50
2018-07-08T11:38:44.451Z,22.60
2018-07-08T11:41:14.012Z,22.70
2018-07-08T11:43:43.379Z,22.60
2018-07-08T11:46:12.513Z,22.70
2018-07-08T11:48:41.955Z,22.70
2018-07-08T11:51:12.796Z,22.50
2018-07-08T11:53:44.709Z,22.60
2018-07-08T11:56:15.192Z,22.70
2018-07-08T11:58:45.315Z,22.70
2018-07-08T12:01:14.730Z,22.80
2018-07-08T12:03:44.490Z,23.00
2018-07-08T12:06:15.821Z,22.90
2018-07-08T12:08:45.654Z,23.00
2018-07-08T12:11:16.713Z,23.10
2018-07-08T12:14:18.326Z,23.20
2018-07-08T12:16:48.738Z,23.10
2018-07-08T12:19:19.431Z,23.10
2018-07-08T12:21:54.570Z,23.10
2018-07-08T12:24:24.514Z,23.00
2018-07-08T12:26:53.710Z,23.10
2018-07-08T12:29:24.891Z,23.10
2018-07-08T12:31:55.701Z,23.20
2018-07-08T12:34:26.599Z,23.20
2018-07-08T12:36:58.160Z,23.30
2018-07-08T12:39:27.946Z,23.50
2018-07-08T12:41:59.359Z,23.60
2018-07-08T12:44:29.919Z,23.70
2018-07-08T12:47:01.387Z,23.80
2018-07-08T12:49:31.627Z,23.90
2018-07-08T12:52:02.654Z,24.00
2018-07-08T12:54:31.915Z,23.80
2018-07-08T12:57:01.652Z,23.70
2018-07-08T12:59:34.011Z,23.70
2018-07-08T13:02:04.330Z,23.60
2018-07-08T13:04:35.390Z,23.60
2018-07-08T13:07:06.181Z,23.60
2018-07-08T13:09:37.562Z,23.80
2018-07-08T13:12:08.559Z,23.90
2018-07-08T13:14:40.328Z,24.00
2018-07-08T13:17:11.167Z,24.10
2018-07-08T13:19:42.426Z,24.10
2018-07-08T13:22:13.594Z,24.20
2018-07-08T13:24:43.183Z,24.10
2018-07-08T13:27:13.896Z,24.00
2018-07-08T13:29:44.126Z,24.00
2018-07-08T13:32:14.577Z,24.00
2018-07-08T13:34:44.377Z,24.00
2018-07-08T13:37:14.525Z,23.90
2018-07-08T13:39:45.451Z,23.80
2018-07-08T13:42:15.642Z,23.90
2018-07-08T13:44:46.625Z,24.10
2018-07-08T13:47:56.367Z,24.30
2018-07-08T13:50:25.994Z,24.40
2018-07-08T13:52:54.906Z,24.50
2018-07-08T13:55:25.496Z,24.60
2018-07-08T13:57:54.967Z,24.60
2018-07-08T14:00:25.398Z,24.50
2018-07-08T14:02:55.810Z,24.40
2018-07-08T14:05:25.846Z,24.40
2018-07-08T14:07:55.497Z,24.50
2018-07-08T14:10:25.474Z,24.60
2018-07-08T14:12:55.493Z,24.60
2018-07-08T14:15:25.283Z,24.70
2018-07-08T14:17:55.330Z,24.70
2018-07-08T14:20:24.800Z,24.60
2018-07-08T14:22:55.527Z,24.70
2018-07-08T14:25:26.422Z,24.80
2018-07-08T14:27:56.506Z,24.90
2018-07-08T14:30:26.004Z,24.90
2018-07-08T14:32:55.538Z,25.00
2018-07-08T14:35:25.571Z,24.90
2018-07-08T14:37:55.521Z,25.00
2018-07-08T14:40:25.095Z,24.90
2018-07-08T14:42:55.249Z,25.00
2018-07-08T14:45:26.356Z,25.00
2018-07-08T14:48:01.447Z,24.90
2018-07-08T14:50:31.498Z,24.80
2018-07-08T14:53:00.836Z,24.80
2018-07-08T14:55:30.607Z,24.80
2018-07-08T14:58:02.432Z,24.70
2018-07-08T15:00:32.399Z,24.70
2018-07-08T15:03:02.398Z,24.60
2018-07-08T15:05:34.064Z,24.50
2018-07-08T15:08:12.332Z,24.50
2018-07-08T15:10:43.707Z,24.60
2018-07-08T15:13:15.378Z,24.80
2018-07-08T15:15:45.846Z,25.00
2018-07-08T15:18:14.687Z,25.20
2018-07-08T15:20:43.752Z,25.10
2018-07-08T15:23:13.338Z,25.20
2018-07-08T15:25:42.551Z,25.30
2018-07-08T15:28:13.006Z,25.30
2018-07-08T15:30:42.599Z,25.30
2018-07-08T15:33:12.361Z,25.30
2018-07-08T15:35:43.109Z,25.40
2018-07-08T15:38:14.251Z,25.50
2018-07-08T15:40:43.695Z,25.40
2018-07-08T15:43:14.458Z,25.50
2018-07-08T15:45:43.747Z,25.50
2018-07-08T15:48:14.579Z,25.60
2018-07-08T15:50:43.727Z,25.70
2018-07-08T15:53:13.017Z,25.80
2018-07-08T15:55:42.279Z,25.80
2018-07-08T15:58:14.052Z,25.80
2018-07-08T16:00:43.351Z,25.90
2018-07-08T16:03:15.503Z,26.00
2018-07-08T16:05:46.739Z,25.70
2018-07-08T16:08:27.530Z,26.00
2018-07-08T16:10:58.744Z,26.90
2018-07-08T16:13:28.343Z,28.50
2018-07-08T16:15:59.994Z,29.60
2018-07-08T16:18:30.882Z,30.30
2018-07-08T16:21:00.698Z,30.60
2018-07-08T16:23:29.790Z,30.70
2018-07-08T16:25:59.572Z,31.10
2018-07-08T16:28:30.918Z,31.30
2018-07-08T16:31:00.603Z,31.50
2018-07-08T16:33:30.429Z,31.50
2018-07-08T16:36:00.775Z,31.80
2018-07-08T16:38:30.366Z,31.90
2018-07-08T16:40:59.791Z,32.10
2018-07-08T16:43:31.075Z,32.20
2018-07-08T16:46:01.805Z,32.30
2018-07-08T16:48:34.442Z,32.00
2018-07-08T16:51:04.622Z,32.20
2018-07-08T16:53:35.470Z,32.60
2018-07-08T16:56:06.958Z,32.80
2018-07-08T16:58:38.186Z,32.60
2018-07-08T17:01:08.864Z,32.70
2018-07-08T17:03:40.062Z,32.60
2018-07-08T17:06:14.574Z,32.20
2018-07-08T17:08:45.431Z,32.00
2018-07-08T17:11:17.190Z,31.90
2018-07-08T17:13:47.352Z,32.10
2018-07-08T17:16:19.149Z,32.20
2018-07-08T17:18:49.414Z,32.50
2018-07-08T17:21:20.315Z,32.30
2018-07-08T17:23:50.226Z,32.40
2018-07-08T17:26:21.565Z,32.10
2018-07-08T17:28:51.420Z,31.80
2018-07-08T17:31:21.482Z,31.30
2018-07-08T17:33:52.179Z,30.70
2018-07-08T17:36:23.383Z,30.80
2018-07-08T17:38:55.098Z,30.40
2018-07-08T17:41:24.848Z,30.30
2018-07-08T17:43:54.523Z,30.30
2018-07-08T17:46:25.004Z,30.40
2018-07-08T17:49:02.494Z,30.70
2018-07-08T17:51:33.294Z,30.10
2018-07-08T17:54:04.699Z,29.10
2018-07-08T17:56:34.835Z,27.90
2018-07-08T17:59:06.821Z,27.60
2018-07-08T18:01:37.358Z,27.70
2018-07-08T18:04:06.963Z,27.80
2018-07-08T18:06:37.342Z,28.00
2018-07-08T18:09:15.258Z,28.00
2018-07-08T18:11:46.596Z,28.40
2018-07-08T18:14:15.849Z,28.90
2018-07-08T18:16:45.663Z,29.60
2018-07-08T18:19:16.251Z,30.30
2018-07-08T18:21:46.977Z,30.60
2018-07-08T18:24:17.771Z,30.10
2018-07-08T18:26:48.923Z,29.10
2018-07-08T18:29:37.983Z,28.20
2018-07-08T18:32:08.531Z,27.20
2018-07-08T18:34:39.258Z,26.40
2018-07-08T18:37:09.410Z,25.70
2018-07-08T18:39:40.058Z,25.00
2018-07-08T18:42:09.350Z,24.50
2018-07-08T18:44:40.608Z,24.00
2018-07-08T18:47:10.478Z,23.50
2018-07-08T18:49:41.046Z,23.20
2018-07-08T18:52:15.594Z,22.80
2018-07-08T18:54:45.023Z,22.50
2018-07-08T18:57:14.192Z,22.30
2018-07-08T18:59:43.964Z,22.10
2018-07-08T19:02:14.297Z,22.00
2018-07-08T19:04:43.282Z,21.80
2018-07-08T19:07:12.390Z,21.70
2018-07-08T19:09:43.787Z,21.50
2018-07-08T19:12:14.155Z,21.40
2018-07-08T19:14:44.216Z,21.30
2018-07-08T19:17:13.550Z,21.10
2018-07-08T19:19:43.863Z,20.90
2018-07-08T19:22:15.336Z,20.80
2018-07-08T19:28:04.956Z,20.60
2018-07-08T19:30:36.490Z,20.40
2018-07-08T19:33:08.126Z,20.30
2018-07-08T19:35:40.103Z,20.20
2018-07-08T19:38:11.163Z,20.00
2018-07-08T19:40:44.015Z,19.90
2018-07-08T19:43:15.366Z,19.80
2018-07-08T19:45:51.585Z,19.70
2018-07-08T19:48:24.463Z,19.50
2018-07-08T19:50:56.275Z,19.40
2018-07-08T19:53:28.646Z,19.30
2018-07-08T19:56:00.273Z,19.20
2018-07-08T19:58:33.532Z,19.20
2018-07-08T20:01:05.071Z,19.00
2018-07-08T20:03:35.694Z,18.90
2018-07-08T20:20:32.155Z,18.40
2018-07-08T20:23:01.807Z,18.40
2018-07-08T20:25:33.174Z,18.30
2018-07-08T20:28:02.190Z,18.20
2018-07-08T20:30:34.227Z,18.10
2018-07-08T20:33:06.868Z,18.10
2018-07-08T20:35:39.102Z,18.00
2018-07-08T20:38:09.578Z,17.90
2018-07-08T20:43:41.551Z,17.80
2018-07-08T20:46:13.507Z,17.70
2018-07-08T20:48:45.184Z,17.70
2018-07-08T20:51:17.279Z,17.60
2018-07-08T20:53:49.411Z,17.50
2018-07-08T20:56:21.865Z,17.50
2018-07-08T20:58:51.713Z,17.50
2018-07-08T21:01:23.199Z,17.40
2018-07-08T21:03:55.531Z,17.40
2018-07-08T21:06:26.710Z,17.40
2018-07-08T21:08:58.530Z,17.30
2018-07-08T21:11:30.514Z,17.30
2018-07-08T21:14:02.421Z,17.20
2018-07-08T21:16:33.727Z,17.20
2018-07-08T21:19:05.989Z,17.20
2018-07-08T21:24:31.859Z,17.10
2018-07-08T21:27:02.450Z,17.00
2018-07-08T21:29:33.514Z,16.90
2018-07-08T21:32:05.163Z,16.90
2018-07-08T21:34:36.282Z,16.80
2018-07-08T21:39:44.076Z,16.70
2018-07-08T21:42:15.495Z,16.70
2018-07-08T21:44:49.030Z,16.60
2018-07-08T21:47:21.114Z,16.60
2018-07-08T21:49:52.247Z,16.60
2018-07-08T21:52:22.254Z,16.50
2018-07-08T21:54:51.523Z,16.40
2018-07-08T21:57:22.691Z,16.40
2018-07-08T21:59:53.259Z,16.40
2018-07-08T22:02:24.435Z,16.40
2018-07-08T22:04:56.021Z,16.30
2018-07-08T22:07:30.445Z,16.30
2018-07-08T22:10:00.540Z,16.30
2018-07-08T22:12:31.719Z,16.20
2018-07-08T22:15:02.188Z,16.20
2018-07-08T22:17:31.820Z,16.10
2018-07-08T22:20:01.407Z,16.00
2018-07-08T22:22:31.387Z,16.00
2018-07-08T22:25:06.270Z,16.00
2018-07-08T22:27:37.954Z,15.90
2018-07-08T22:30:09.175Z,15.90
2018-07-08T22:32:40.949Z,15.90
2018-07-08T22:35:12.335Z,15.80
2018-07-08T22:37:43.361Z,15.70
2018-07-08T22:40:13.562Z,15.60
2018-07-08T22:42:45.979Z,15.60
2018-07-08T22:45:17.145Z,15.50
2018-07-08T22:47:48.179Z,15.50
2018-07-08T22:50:20.210Z,15.50
2018-07-08T22:52:51.952Z,15.40
2018-07-08T22:55:23.598Z,15.40
2018-07-08T22:57:53.361Z,15.30
2018-07-08T23:00:34.136Z,15.20
2018-07-08T23:04:11.569Z,15.20
2018-07-08T23:06:48.761Z,15.20
2018-07-08T23:09:19.149Z,15.10
2018-07-08T23:11:49.210Z,15.10
2018-07-08T23:14:20.831Z,15.00
2018-07-08T23:16:52.166Z,15.00
2018-07-08T23:19:22.374Z,15.00
2018-07-08T23:21:52.468Z,15.00
2018-07-08T23:24:24.372Z,15.00
2018-07-08T23:27:01.895Z,14.90
2018-07-08T23:29:34.033Z,14.90
2018-07-08T23:32:06.259Z,14.80
2018-07-08T23:34:36.470Z,14.80
2018-07-08T23:37:06.987Z,14.70
2018-07-08T23:39:38.590Z,14.70
2018-07-08T23:42:09.138Z,14.70
2018-07-08T23:44:40.347Z,14.60
2018-07-08T23:47:10.063Z,14.60
2018-07-08T23:49:41.591Z,14.60
2018-07-08T23:52:13.111Z,14.50
2018-07-08T23:54:44.257Z,14.50
2018-07-08T23:57:14.858Z,14.40
2018-07-08T23:59:46.367Z,14.30
